Time;durP1;ratioP1;P1;durP2;ratioP2;P2;SDS_P1;SDS_P2;PMS_P1;PMS_P2;Temp;Humidity;BMP_temperature;BMP_pressure;BME280_temperature;BME280_humidity;BME280_pressure;Samples;Min_cycle;Max_cycle;Signal;HPM_P1;HPM_P2
2023/05/07 00:01:22;;;;;;;0.15;0.15;;;;;;;;;;5028859;28;20518;-78
2023/05/07 00:03:49;;;;;;;0.10;0.10;;;;;;;;;;5045299;28;21051;-78
2023/05/07 00:06:15;;;;;;;0.10;0.10;;;;;;;;;;5045610;28;20056;-78
2023/05/07 00:08:42;;;;;;;0.65;0.32;;;;;;;;;;5043927;28;20050;-78
2023/05/07 00:11:08;;;;;;;0.20;0.20;;;;;;;;;;5046097;28;20243;-78
2023/05/07 00:13:37;;;;;;;0.10;0.10;;;;;;;;;;5045385;28;20148;-78
2023/05/07 00:16:04;;;;;;;0.10;0.10;;;;;;;;;;5045354;28;20154;-79
2023/05/07 00:18:30;;;;;;;0.88;0.40;;;;;;;;;;5045595;28;20563;-80
2023/05/07 00:20:57;;;;;;;0.10;0.10;;;;;;;;;;5043224;28;20053;-78
2023/05/07 00:23:23;;;;;;;0.10;0.10;;;;;;;;;;5040013;28;20058;-78
2023/05/07 00:25:50;;;;;;;0.10;0.10;;;;;;;;;;5025932;28;20485;-78
2023/05/07 00:28:16;;;;;;;0.10;0.10;;;;;;;;;;5032081;28;20053;-77
2023/05/07 00:30:42;;;;;;;0.10;0.10;;;;;;;;;;5053429;28;20115;-78
2023/05/07 00:33:09;;;;;;;0.30;0.30;;;;;;;;;;5043870;28;20049;-78
2023/05/07 00:35:35;;;;;;;0.80;0.75;;;;;;;;;;5045941;28;20162;-78
2023/05/07 00:38:02;;;;;;;0.10;0.10;;;;;;;;;;5046331;28;20054;-77
2023/05/07 00:40:28;;;;;;;0.10;0.10;;;;;;;;;;5044524;28;20053;-79
2023/05/07 00:42:57;;;;;;;0.17;0.17;;;;;;;;;;5048097;28;20053;-78
2023/05/07 00:45:28;;;;;;;0.17;0.17;;;;;;;;;;5061030;28;20129;-78
2023/05/07 00:47:59;;;;;;;0.10;0.10;;;;;;;;;;5035806;28;20128;-77
2023/05/07 00:50:26;;;;;;;0.10;0.10;;;;;;;;;;5050604;28;20053;-78
2023/05/07 00:52:52;;;;;;;0.10;0.10;;;;;;;;;;5029272;28;20100;-78
2023/05/07 00:55:28;;;;;;;0.38;0.25;;;;;;;;;;5048415;28;20060;-78
2023/05/07 00:57:57;;;;;;;0.10;0.10;;;;;;;;;;5049002;28;20665;-79
2023/05/07 01:00:24;;;;;;;0.30;0.25;;;;;;;;;;5048738;28;20649;-78
2023/05/07 01:02:51;;;;;;;0.10;0.10;;;;;;;;;;5055167;28;20717;-78
2023/05/07 01:05:20;;;;;;;0.10;0.10;;;;;;;;;;5047152;28;20050;-78
2023/05/07 01:07:47;;;;;;;0.13;0.10;;;;;;;;;;5045952;28;20087;-78
2023/05/07 01:10:14;;;;;;;0.10;0.10;;;;;;;;;;5035496;28;20139;-78
2023/05/07 01:12:41;;;;;;;0.10;0.10;;;;;;;;;;5045772;28;20501;-78
2023/05/07 01:15:07;;;;;;;0.13;0.13;;;;;;;;;;5045041;28;20077;-78
2023/05/07 01:17:35;;;;;;;0.10;0.10;;;;;;;;;;5008980;28;20513;-78
2023/05/07 01:20:02;;;;;;;0.10;0.10;;;;;;;;;;5022836;28;20053;-78
2023/05/07 01:22:31;;;;;;;0.10;0.10;;;;;;;;;;5045449;28;20500;-77
2023/05/07 01:24:59;;;;;;;0.10;0.10;;;;;;;;;;5022912;28;20302;-77
2023/05/07 01:27:26;;;;;;;0.10;0.10;;;;;;;;;;5043345;28;20494;-78
2023/05/07 01:29:52;;;;;;;0.10;0.10;;;;;;;;;;5048135;28;20105;-78
2023/05/07 01:32:21;;;;;;;0.10;0.10;;;;;;;;;;5044847;28;20049;-77
2023/05/07 01:34:48;;;;;;;0.10;0.10;;;;;;;;;;5046071;28;20053;-78
2023/05/07 01:37:14;;;;;;;0.10;0.10;;;;;;;;;;5042902;28;21361;-77
2023/05/07 01:39:41;;;;;;;0.25;0.25;;;;;;;;;;5042759;28;20065;-77
2023/05/07 01:42:07;;;;;;;0.10;0.10;;;;;;;;;;5046753;28;20053;-77
2023/05/07 01:44:34;;;;;;;0.10;0.10;;;;;;;;;;5046631;28;20108;-77
2023/05/07 01:47:01;;;;;;;0.10;0.10;;;;;;;;;;5041313;28;20057;-78
2023/05/07 01:49:28;;;;;;;0.20;0.20;;;;;;;;;;5046596;28;20061;-77
2023/05/07 01:51:55;;;;;;;0.47;0.30;;;;;;;;;;5045412;28;20557;-78
2023/05/07 01:54:27;;;;;;;0.10;0.10;;;;;;;;;;5043884;28;20508;-78
2023/05/07 01:56:55;;;;;;;0.10;0.10;;;;;;;;;;5042271;28;20106;-78
2023/05/07 01:59:21;;;;;;;0.10;0.10;;;;;;;;;;5047773;28;20052;-77
2023/05/07 02:01:48;;;;;;;0.10;0.10;;;;;;;;;;5044096;28;20140;-78
2023/05/07 02:04:14;;;;;;;3.25;0.20;;;;;;;;;;5044821;28;20057;-78
2023/05/07 02:06:41;;;;;;;0.17;0.10;;;;;;;;;;5026636;28;20049;-78
2023/05/07 02:09:08;;;;;;;0.10;0.10;;;;;;;;;;5044990;28;20172;-77
2023/05/07 02:11:35;;;;;;;0.20;0.20;;;;;;;;;;5046384;28;20045;-78
2023/05/07 02:14:01;;;;;;;0.20;0.20;;;;;;;;;;5044707;28;20142;-78
2023/05/07 02:16:28;;;;;;;0.10;0.10;;;;;;;;;;5045365;28;20771;-77
2023/05/07 02:18:54;;;;;;;0.17;0.17;;;;;;;;;;5043945;28;20107;-78
2023/05/07 02:21:21;;;;;;;0.32;0.30;;;;;;;;;;5011977;28;20101;-77
2023/05/07 02:23:47;;;;;;;0.10;0.10;;;;;;;;;;5038668;28;20053;-77
2023/05/07 02:26:14;;;;;;;0.10;0.10;;;;;;;;;;5029298;28;20038;-78
2023/05/07 02:28:40;;;;;;;0.10;0.10;;;;;;;;;;5053233;28;20049;-78
2023/05/07 02:31:06;;;;;;;0.10;0.10;;;;;;;;;;5046949;28;20499;-77
2023/05/07 02:33:35;;;;;;;0.10;0.10;;;;;;;;;;5040859;28;20641;-77
2023/05/07 02:36:08;;;;;;;0.10;0.10;;;;;;;;;;5043130;28;20416;-78
2023/05/07 02:38:34;;;;;;;0.20;0.20;;;;;;;;;;5029139;28;20057;-78
2023/05/07 02:41:01;;;;;;;0.10;0.10;;;;;;;;;;5025773;28;20061;-78
2023/05/07 02:43:27;;;;;;;0.10;0.10;;;;;;;;;;5041673;28;20593;-77
2023/05/07 02:46:03;;;;;;;0.10;0.10;;;;;;;;;;5025474;28;20832;-78
2023/05/07 02:48:30;;;;;;;0.10;0.10;;;;;;;;;;5025946;28;20053;-77
2023/05/07 02:50:57;;;;;;;0.10;0.10;;;;;;;;;;5031451;28;20588;-77
2023/05/07 02:53:25;;;;;;;0.10;0.10;;;;;;;;;;5044037;28;20491;-77
2023/05/07 02:55:53;;;;;;;0.13;0.13;;;;;;;;;;5025727;28;20072;-78
2023/05/07 02:58:19;;;;;;;0.10;0.10;;;;;;;;;;5044386;28;20080;-78
2023/05/07 03:00:46;;;;;;;0.10;0.10;;;;;;;;;;5044410;28;20570;-78
2023/05/07 03:03:13;;;;;;;0.10;0.10;;;;;;;;;;5042637;28;20535;-77
2023/05/07 03:05:39;;;;;;;0.10;0.10;;;;;;;;;;5040634;28;20943;-76
2023/05/07 03:08:06;;;;;;;0.10;0.10;;;;;;;;;;5043419;28;20145;-75
2023/05/07 03:10:32;;;;;;;0.10;0.10;;;;;;;;;;5040982;28;20054;-77
2023/05/07 03:12:59;;;;;;;0.10;0.10;;;;;;;;;;5043950;28;20504;-77
2023/05/07 03:15:25;;;;;;;0.10;0.10;;;;;;;;;;5043476;28;20139;-76
2023/05/07 03:17:51;;;;;;;0.10;0.10;;;;;;;;;;5042379;28;20051;-77
2023/05/07 03:20:18;;;;;;;0.10;0.10;;;;;;;;;;5040747;28;20613;-77
2023/05/07 03:22:44;;;;;;;0.10;0.10;;;;;;;;;;5043111;28;20065;-77
2023/05/07 03:25:12;;;;;;;0.10;0.10;;;;;;;;;;5042766;28;20116;-77
2023/05/07 03:27:38;;;;;;;0.22;0.22;;;;;;;;;;5042309;28;20450;-77
2023/05/07 03:30:06;;;;;;;0.30;0.30;;;;;;;;;;5040502;28;20726;-76
2023/05/07 03:32:32;;;;;;;0.20;0.20;;;;;;;;;;5025131;28;20054;-77
2023/05/07 03:34:59;;;;;;;0.10;0.10;;;;;;;;;;5049159;28;20061;-77
2023/05/07 03:37:25;;;;;;;0.10;0.10;;;;;;;;;;5042825;28;20057;-77
2023/05/07 03:39:52;;;;;;;0.10;0.10;;;;;;;;;;5033854;28;20153;-77
2023/05/07 03:42:18;;;;;;;0.10;0.10;;;;;;;;;;5036737;28;20054;-77
2023/05/07 03:44:44;;;;;;;0.10;0.10;;;;;;;;;;5048785;28;20111;-79
2023/05/07 03:47:13;;;;;;;0.10;0.10;;;;;;;;;;5042477;28;20784;-78
2023/05/07 03:49:39;;;;;;;0.10;0.10;;;;;;;;;;5041850;28;20101;-78
2023/05/07 03:52:06;;;;;;;0.10;0.10;;;;;;;;;;5045055;28;20140;-78
2023/05/07 03:54:32;;;;;;;0.10;0.10;;;;;;;;;;5041249;28;20435;-78
2023/05/07 03:56:59;;;;;;;0.10;0.10;;;;;;;;;;5028146;28;20140;-78
2023/05/07 03:59:25;;;;;;;0.13;0.13;;;;;;;;;;5043344;28;20057;-78
2023/05/07 04:01:52;;;;;;;0.10;0.10;;;;;;;;;;5044684;28;20060;-78
2023/05/07 04:04:18;;;;;;;0.10;0.10;;;;;;;;;;5025662;28;20202;-78
2023/05/07 04:06:45;;;;;;;0.10;0.10;;;;;;;;;;5043961;28;20057;-78
2023/05/07 04:09:11;;;;;;;0.10;0.10;;;;;;;;;;5042066;28;20068;-78
2023/05/07 04:11:40;;;;;;;0.10;0.10;;;;;;;;;;5025038;28;21026;-77
2023/05/07 04:14:06;;;;;;;0.10;0.10;;;;;;;;;;5043733;28;20144;-78
2023/05/07 04:16:34;;;;;;;0.13;0.13;;;;;;;;;;5027077;28;20050;-78
2023/05/07 04:19:00;;;;;;;0.10;0.10;;;;;;;;;;5046487;28;20060;-78
2023/05/07 04:21:27;;;;;;;0.13;0.13;;;;;;;;;;5048842;28;20061;-77
2023/05/07 04:23:53;;;;;;;0.10;0.10;;;;;;;;;;5047262;28;20057;-77
2023/05/07 04:26:21;;;;;;;0.10;0.10;;;;;;;;;;5046970;28;20093;-76
2023/05/07 04:28:47;;;;;;;0.10;0.10;;;;;;;;;;5030204;28;20219;-78
2023/05/07 04:31:14;;;;;;;0.47;0.47;;;;;;;;;;5046801;28;20053;-78
2023/05/07 04:33:40;;;;;;;0.25;0.25;;;;;;;;;;5044413;28;20061;-79
2023/05/07 04:36:07;;;;;;;0.30;0.30;;;;;;;;;;5047821;28;20053;-78
2023/05/07 04:38:33;;;;;;;0.17;0.17;;;;;;;;;;5039494;28;20054;-79
2023/05/07 04:41:05;;;;;;;0.20;0.20;;;;;;;;;;5028526;28;20175;-79
2023/05/07 04:43:32;;;;;;;0.38;0.20;;;;;;;;;;5038745;28;20091;-78
2023/05/07 04:45:59;;;;;;;0.10;0.10;;;;;;;;;;5044744;28;20049;-79
2023/05/07 04:48:26;;;;;;;0.10;0.10;;;;;;;;;;5048566;28;20132;-78
2023/05/07 04:50:52;;;;;;;0.10;0.10;;;;;;;;;;5033272;28;20103;-78
2023/05/07 04:53:19;;;;;;;0.10;0.10;;;;;;;;;;5030484;28;20061;-78
2023/05/07 04:55:46;;;;;;;0.10;0.10;;;;;;;;;;5049129;28;20057;-78
2023/05/07 04:58:12;;;;;;;0.10;0.10;;;;;;;;;;5045258;28;20079;-79
2023/05/07 05:00:39;;;;;;;0.10;0.10;;;;;;;;;;5046855;28;20160;-78
2023/05/07 05:03:08;;;;;;;0.10;0.10;;;;;;;;;;5045243;28;20045;-79
2023/05/07 05:05:34;;;;;;;0.10;0.10;;;;;;;;;;5049395;28;20117;-78
2023/05/07 05:08:01;;;;;;;0.10;0.10;;;;;;;;;;5030282;28;20058;-79
2023/05/07 05:10:27;;;;;;;0.10;0.10;;;;;;;;;;5027323;28;20096;-78
2023/05/07 05:12:54;;;;;;;0.10;0.10;;;;;;;;;;5045273;28;20064;-78
2023/05/07 05:15:20;;;;;;;0.10;0.10;;;;;;;;;;5047261;28;20492;-79
2023/05/07 05:17:47;;;;;;;0.30;0.30;;;;;;;;;;5063194;28;20057;-79
2023/05/07 05:20:14;;;;;;;0.20;0.20;;;;;;;;;;5061698;28;20437;-79
2023/05/07 05:22:41;;;;;;;0.10;0.10;;;;;;;;;;5030663;28;20053;-79
2023/05/07 05:25:07;;;;;;;0.10;0.10;;;;;;;;;;5049493;28;20112;-79
2023/05/07 05:27:35;;;;;;;0.10;0.10;;;;;;;;;;5048774;28;20046;-79
2023/05/07 05:30:01;;;;;;;0.20;0.15;;;;;;;;;;5048417;28;20061;-78
2023/05/07 05:32:27;;;;;;;0.10;0.10;;;;;;;;;;5013982;28;20508;-78
2023/05/07 05:34:54;;;;;;;0.40;0.40;;;;;;;;;;5042343;28;20045;-78
2023/05/07 05:37:20;;;;;;;0.10;0.10;;;;;;;;;;5048250;28;20062;-79
2023/05/07 05:39:47;;;;;;;0.08;0.08;;;;;;;;;;5049142;28;20065;-79
2023/05/07 05:42:13;;;;;;;0.52;0.30;;;;;;;;;;5042809;28;20083;-79
2023/05/07 05:44:40;;;;;;;0.10;0.10;;;;;;;;;;5040086;28;20520;-79
2023/05/07 05:47:06;;;;;;;0.10;0.10;;;;;;;;;;5044793;28;20159;-79
2023/05/07 05:49:32;;;;;;;0.10;0.10;;;;;;;;;;5048926;28;20113;-79
2023/05/07 05:51:59;;;;;;;0.10;0.10;;;;;;;;;;5044131;28;20134;-79
2023/05/07 05:54:25;;;;;;;0.10;0.10;;;;;;;;;;5038778;28;20867;-78
2023/05/07 05:56:52;;;;;;;0.10;0.10;;;;;;;;;;5028486;28;20069;-78
2023/05/07 05:59:18;;;;;;;0.10;0.10;;;;;;;;;;5045339;28;20447;-78
2023/05/07 06:01:45;;;;;;;1.33;0.20;;;;;;;;;;5026463;28;20547;-78
2023/05/07 06:04:11;;;;;;;0.40;0.25;;;;;;;;;;5044163;28;20077;-78
2023/05/07 06:06:38;;;;;;;0.10;0.10;;;;;;;;;;5044249;28;20530;-78
2023/05/07 06:09:04;;;;;;;0.20;0.20;;;;;;;;;;5044020;28;20054;-78
2023/05/07 06:11:31;;;;;;;0.63;0.30;;;;;;;;;;5038074;28;20057;-78
2023/05/07 06:13:57;;;;;;;0.10;0.10;;;;;;;;;;5047303;28;20051;-79
2023/05/07 06:16:24;;;;;;;0.32;0.32;;;;;;;;;;5031441;28;20140;-79
2023/05/07 06:18:54;;;;;;;0.22;0.20;;;;;;;;;;5027014;28;20057;-79
2023/05/07 06:21:20;;;;;;;0.17;0.17;;;;;;;;;;5038863;28;20157;-80
2023/05/07 06:23:46;;;;;;;0.10;0.10;;;;;;;;;;5032173;28;20064;-79
2023/05/07 06:26:13;;;;;;;0.22;0.22;;;;;;;;;;5067230;28;20057;-79
2023/05/07 06:28:39;;;;;;;0.55;0.55;;;;;;;;;;5040871;28;20053;-79
2023/05/07 06:31:16;;;;;;;0.10;0.10;;;;;;;;;;5027061;28;20567;-79
2023/05/07 06:33:44;;;;;;;1.55;0.77;;;;;;;;;;5046261;28;20903;-79
2023/05/07 06:36:10;;;;;;;0.10;0.10;;;;;;;;;;5045297;28;20065;-78
2023/05/07 06:38:36;;;;;;;0.13;0.13;;;;;;;;;;5046039;28;20061;-79
2023/05/07 06:41:03;;;;;;;0.10;0.10;;;;;;;;;;5041278;28;20053;-79
2023/05/07 06:43:29;;;;;;;0.38;0.38;;;;;;;;;;5045348;28;20101;-79
2023/05/07 06:45:56;;;;;;;0.10;0.10;;;;;;;;;;5047544;28;20055;-78
2023/05/07 06:48:22;;;;;;;0.10;0.10;;;;;;;;;;5047506;28;21163;-79
2023/05/07 06:50:49;;;;;;;0.20;0.20;;;;;;;;;;5036193;28;20053;-78
2023/05/07 06:53:16;;;;;;;0.20;0.20;;;;;;;;;;5029833;28;20057;-79
2023/05/07 06:59:02;;;;;;;0.10;0.10;;;;;;;;;;5049454;28;20048;-79
2023/05/07 07:01:33;;;;;;;0.22;0.20;;;;;;;;;;5049371;28;20072;-79
2023/05/07 07:07:36;;;;;;;0.10;0.10;;;;;;;;;;4948861;28;20144;-79
2023/05/07 07:13:54;;;;;;;0.10;0.10;;;;;;;;;;5057741;28;20938;-78
2023/05/07 07:16:29;;;;;;;0.33;0.27;;;;;;;;;;5023396;28;20575;-79
2023/05/07 07:22:28;;;;;;;0.10;0.10;;;;;;;;;;5050820;28;20037;-79
2023/05/07 07:24:56;;;;;;;0.10;0.10;;;;;;;;;;5041574;28;20112;-78
2023/05/07 07:27:22;;;;;;;0.30;0.30;;;;;;;;;;5041423;28;20504;-79
2023/05/07 07:29:49;;;;;;;0.20;0.20;;;;;;;;;;5037155;28;20052;-79
2023/05/07 07:32:15;;;;;;;0.13;0.13;;;;;;;;;;5043439;28;20053;-79
2023/05/07 07:34:42;;;;;;;9.98;1.83;;;;;;;;;;5037839;28;20053;-79
2023/05/07 07:37:08;;;;;;;0.52;0.50;;;;;;;;;;5015403;28;20137;-78
2023/05/07 07:39:37;;;;;;;0.20;0.20;;;;;;;;;;5034743;28;20116;-79
2023/05/07 07:42:03;;;;;;;0.10;0.10;;;;;;;;;;5033240;28;20428;-78
2023/05/07 07:44:30;;;;;;;0.93;0.50;;;;;;;;;;5033613;28;20049;-78
2023/05/07 07:46:56;;;;;;;0.10;0.10;;;;;;;;;;5038120;28;20631;-78
2023/05/07 07:49:22;;;;;;;0.10;0.10;;;;;;;;;;5035236;28;20061;-79
2023/05/07 07:51:49;;;;;;;0.43;0.35;;;;;;;;;;5045731;28;20744;-79
2023/05/07 07:54:16;;;;;;;1.52;1.13;;;;;;;;;;5028416;28;20073;-79
2023/05/07 07:56:42;;;;;;;0.63;0.40;;;;;;;;;;5023683;28;20145;-78
2023/05/07 07:59:09;;;;;;;0.52;0.38;;;;;;;;;;5042410;28;20058;-78
2023/05/07 08:01:35;;;;;;;0.28;0.20;;;;;;;;;;5027807;28;20523;-79
2023/05/07 08:04:03;;;;;;;0.73;0.45;;;;;;;;;;5045976;28;20069;-78
2023/05/07 08:06:29;;;;;;;0.22;0.22;;;;;;;;;;5019217;28;20056;-78
2023/05/07 08:08:56;;;;;;;0.55;0.50;;;;;;;;;;5038226;28;20077;-79
2023/05/07 08:11:22;;;;;;;0.32;0.30;;;;;;;;;;5032027;28;20050;-78
2023/05/07 08:13:48;;;;;;;0.30;0.30;;;;;;;;;;5040368;28;20423;-79
2023/05/07 08:16:15;;;;;;;0.30;0.30;;;;;;;;;;5043160;28;20402;-78
2023/05/07 08:18:41;;;;;;;0.20;0.20;;;;;;;;;;5039427;28;20053;-78
2023/05/07 08:21:08;;;;;;;0.10;0.10;;;;;;;;;;5038013;28;20058;-79
2023/05/07 08:23:34;;;;;;;0.38;0.20;;;;;;;;;;5042904;28;20054;-78
2023/05/07 08:26:01;;;;;;;0.13;0.13;;;;;;;;;;5020782;28;20060;-80
2023/05/07 08:28:27;;;;;;;0.32;0.30;;;;;;;;;;5046245;28;20310;-78
2023/05/07 08:30:54;;;;;;;0.35;0.28;;;;;;;;;;5038966;28;20526;-78
2023/05/07 08:33:20;;;;;;;0.20;0.20;;;;;;;;;;5025423;28;20060;-78
2023/05/07 08:35:47;;;;;;;0.25;0.25;;;;;;;;;;5021158;28;20083;-79
2023/05/07 08:38:13;;;;;;;0.47;0.30;;;;;;;;;;5045083;28;20562;-78
2023/05/07 08:40:40;;;;;;;0.30;0.30;;;;;;;;;;5026112;28;20718;-78
2023/05/07 08:43:07;;;;;;;0.10;0.10;;;;;;;;;;5043883;28;20524;-79
2023/05/07 08:45:34;;;;;;;0.10;0.10;;;;;;;;;;5039590;28;20050;-78
2023/05/07 08:48:05;;;;;;;0.30;0.28;;;;;;;;;;5031692;28;20152;-79
2023/05/07 08:50:35;;;;;;;0.10;0.10;;;;;;;;;;5029615;28;20053;-78
2023/05/07 08:53:02;;;;;;;0.10;0.10;;;;;;;;;;5021582;28;20609;-79
2023/05/07 08:55:29;;;;;;;0.20;0.20;;;;;;;;;;5044880;28;20609;-79
2023/05/07 09:00:32;;;;;;;0.45;0.45;;;;;;;;;;5803180;22;20065;-79
2023/05/07 09:02:59;;;;;;;0.20;0.20;;;;;;;;;;5005596;28;20053;-78
2023/05/07 09:05:26;;;;;;;0.90;0.47;;;;;;;;;;5035763;28;20050;-78
2023/05/07 09:07:52;;;;;;;0.13;0.13;;;;;;;;;;5034865;28;20050;-81
2023/05/07 09:10:20;;;;;;;0.10;0.10;;;;;;;;;;5034765;28;20058;-80
2023/05/07 09:12:47;;;;;;;0.10;0.10;;;;;;;;;;5042784;28;20081;-81
2023/05/07 09:15:14;;;;;;;0.40;0.30;;;;;;;;;;5040859;28;20053;-83
2023/05/07 09:17:42;;;;;;;0.10;0.10;;;;;;;;;;5040733;28;20057;-80
2023/05/07 09:20:08;;;;;;;0.30;0.30;;;;;;;;;;5041807;28;21039;-81
2023/05/07 09:22:37;;;;;;;0.38;0.32;;;;;;;;;;5037976;28;20053;-81
2023/05/07 09:25:03;;;;;;;0.45;0.20;;;;;;;;;;5038644;28;20049;-79
2023/05/07 09:27:30;;;;;;;0.45;0.30;;;;;;;;;;5037311;28;20047;-81
2023/05/07 09:29:56;;;;;;;0.43;0.40;;;;;;;;;;5041808;28;20643;-81
2023/05/07 09:32:24;;;;;;;0.20;0.20;;;;;;;;;;5039983;28;20101;-79
2023/05/07 09:34:50;;;;;;;0.45;0.30;;;;;;;;;;5037833;28;20144;-80
2023/05/07 09:37:17;;;;;;;0.25;0.25;;;;;;;;;;5035415;28;20058;-80
2023/05/07 09:39:45;;;;;;;0.45;0.45;;;;;;;;;;5035484;28;20050;-79
2023/05/07 09:42:12;;;;;;;0.57;0.40;;;;;;;;;;5034389;28;20056;-80
2023/05/07 09:44:38;;;;;;;0.30;0.30;;;;;;;;;;5031602;28;20045;-79
2023/05/07 09:47:05;;;;;;;0.32;0.32;;;;;;;;;;5024372;28;20978;-77
2023/05/07 09:49:34;;;;;;;0.68;0.38;;;;;;;;;;5029800;28;20056;-78
2023/05/07 09:52:01;;;;;;;0.13;0.13;;;;;;;;;;5039472;28;20046;-80
2023/05/07 09:54:30;;;;;;;5.45;0.75;;;;;;;;;;5043024;28;20053;-80
2023/05/07 09:56:58;;;;;;;0.20;0.20;;;;;;;;;;5025629;28;20149;-79
2023/05/07 09:59:25;;;;;;;0.32;0.22;;;;;;;;;;5029132;28;20073;-80
2023/05/07 10:01:57;;;;;;;0.52;0.52;;;;;;;;;;5025184;28;20054;-79
2023/05/07 10:04:25;;;;;;;0.40;0.40;;;;;;;;;;5023058;28;20054;-80
2023/05/07 10:06:51;;;;;;;0.10;0.10;;;;;;;;;;5021855;28;20869;-78
2023/05/07 10:09:18;;;;;;;0.45;0.32;;;;;;;;;;5024131;28;20135;-79
2023/05/07 10:11:45;;;;;;;0.30;0.30;;;;;;;;;;5023207;28;20049;-78
2023/05/07 10:14:12;;;;;;;0.47;0.30;;;;;;;;;;5021790;28;20058;-79
2023/05/07 10:16:38;;;;;;;0.20;0.20;;;;;;;;;;5023997;28;20424;-78
2023/05/07 10:19:11;;;;;;;1.15;0.32;;;;;;;;;;5025568;28;20049;-80
2023/05/07 10:21:39;;;;;;;0.20;0.20;;;;;;;;;;5022654;28;20077;-78
2023/05/07 10:24:13;;;;;;;0.20;0.20;;;;;;;;;;5045369;28;20049;-80
2023/05/07 10:26:42;;;;;;;0.35;0.35;;;;;;;;;;5039156;28;20058;-80
2023/05/07 10:29:31;;;;;;;0.10;0.10;;;;;;;;;;5030721;28;20060;-80
2023/05/07 10:31:58;;;;;;;0.10;0.10;;;;;;;;;;5019008;28;20056;-79
2023/05/07 10:34:27;;;;;;;0.10;0.10;;;;;;;;;;5031358;28;20121;-81
2023/05/07 10:36:54;;;;;;;0.20;0.20;;;;;;;;;;5032969;28;20058;-80
2023/05/07 10:39:21;;;;;;;0.45;0.45;;;;;;;;;;5029073;28;20544;-80
2023/05/07 10:41:48;;;;;;;0.20;0.20;;;;;;;;;;5030078;28;20096;-80
2023/05/07 10:44:28;;;;;;;0.10;0.10;;;;;;;;;;5031236;28;20061;-79
2023/05/07 10:47:14;;;;;;;0.53;0.27;;;;;;;;;;5030299;28;20046;-79
2023/05/07 10:49:41;;;;;;;0.68;0.50;;;;;;;;;;5024912;28;20089;-80
2023/05/07 10:52:14;;;;;;;0.15;0.13;;;;;;;;;;5034444;28;20054;-80
2023/05/07 10:54:41;;;;;;;0.20;0.20;;;;;;;;;;5026237;28;20054;-80
2023/05/07 10:57:27;;;;;;;0.30;0.25;;;;;;;;;;5031915;28;20137;-81
2023/05/07 10:59:54;;;;;;;0.60;0.40;;;;;;;;;;5032864;28;20100;-81
2023/05/07 11:02:23;;;;;;;0.20;0.20;;;;;;;;;;5030264;28;20061;-81
2023/05/07 11:07:31;;;;;;;1.05;0.60;;;;;;;;;;5069687;22;20547;-78
2023/05/07 11:10:03;;;;;;;0.57;0.47;;;;;;;;;;5012006;28;20054;-77
2023/05/07 11:12:36;;;;;;;0.88;0.60;;;;;;;;;;4994303;28;20129;-78
2023/05/07 11:15:04;;;;;;;0.30;0.30;;;;;;;;;;5018482;28;20269;-79
2023/05/07 11:17:37;;;;;;;0.55;0.55;;;;;;;;;;5022592;28;20057;-80
2023/05/07 11:20:04;;;;;;;0.47;0.35;;;;;;;;;;5024183;28;20054;-80
2023/05/07 11:22:31;;;;;;;1.00;0.38;;;;;;;;;;5020802;28;20057;-79
2023/05/07 11:25:01;;;;;;;0.50;0.38;;;;;;;;;;5025675;28;20132;-79
2023/05/07 11:27:28;;;;;;;;;;;;;;;;;;5007355;28;20058;-80
2023/05/07 11:29:54;;;;;;;0.20;0.20;;;;;;;;;;5017124;28;47475;-79
2023/05/07 11:32:24;;;;;;;0.32;0.20;;;;;;;;;;4997648;28;20129;-78
2023/05/07 11:34:51;;;;;;;0.20;0.20;;;;;;;;;;5004047;28;20064;-78
2023/05/07 11:37:18;;;;;;;0.55;0.45;;;;;;;;;;5023496;28;20133;-78
2023/05/07 11:39:45;;;;;;;0.80;0.40;;;;;;;;;;5004787;28;20627;-78
2023/05/07 11:42:28;;;;;;;0.45;0.43;;;;;;;;;;5020542;28;20539;-78
2023/05/07 11:44:55;;;;;;;0.38;0.30;;;;;;;;;;5006020;28;20137;-78
2023/05/07 11:47:22;;;;;;;0.63;0.40;;;;;;;;;;5021367;28;20148;-78
2023/05/07 11:49:49;;;;;;;1.35;0.80;;;;;;;;;;5012614;28;20559;-78
2023/05/07 11:52:17;;;;;;;0.20;0.20;;;;;;;;;;5022536;28;20081;-78
2023/05/07 11:54:49;;;;;;;0.20;0.20;;;;;;;;;;5023795;28;20066;-78
2023/05/07 11:57:16;;;;;;;0.45;0.38;;;;;;;;;;5024400;28;20057;-78
2023/05/07 11:59:47;;;;;;;0.30;0.30;;;;;;;;;;5004416;28;20061;-79
2023/05/07 12:02:15;;;;;;;0.17;0.17;;;;;;;;;;5012270;28;20058;-78
2023/05/07 12:04:42;;;;;;;0.68;0.57;;;;;;;;;;5113149;22;20145;-78
2023/05/07 12:07:13;;;;;;;0.20;0.20;;;;;;;;;;5027576;28;20053;-78
2023/05/07 12:09:40;;;;;;;0.17;0.17;;;;;;;;;;5007674;28;20061;-78
2023/05/07 12:12:07;;;;;;;0.20;0.20;;;;;;;;;;5022141;28;20046;-79
2023/05/07 12:14:37;;;;;;;1.10;0.52;;;;;;;;;;5021541;28;20054;-78
2023/05/07 12:17:04;;;;;;;0.22;0.20;;;;;;;;;;5021150;28;20057;-78
2023/05/07 12:19:31;;;;;;;0.30;0.30;;;;;;;;;;5000520;28;20050;-78
2023/05/07 12:21:57;;;;;;;0.10;0.10;;;;;;;;;;5021057;28;20060;-78
2023/05/07 12:24:24;;;;;;;0.20;0.20;;;;;;;;;;5001186;28;20051;-78
2023/05/07 12:26:50;;;;;;;0.20;0.20;;;;;;;;;;5022360;28;20053;-78
2023/05/07 12:29:20;;;;;;;0.20;0.20;;;;;;;;;;5014753;28;20065;-78
2023/05/07 12:31:47;;;;;;;0.20;0.20;;;;;;;;;;5004091;28;20055;-78
2023/05/07 12:34:13;;;;;;;0.10;0.10;;;;;;;;;;5014813;28;20054;-78
2023/05/07 12:36:40;;;;;;;0.20;0.20;;;;;;;;;;5016420;28;20108;-78
2023/05/07 12:39:08;;;;;;;0.17;0.17;;;;;;;;;;5022619;28;20030;-78
2023/05/07 12:45:09;;;;;;;1.13;0.35;;;;;;;;;;5021858;28;20076;-78
2023/05/07 12:47:37;;;;;;;0.20;0.20;;;;;;;;;;5024832;28;20054;-78
2023/05/07 12:50:06;;;;;;;0.77;0.60;;;;;;;;;;5017838;28;20412;-78
2023/05/07 12:52:33;;;;;;;0.88;0.40;;;;;;;;;;5023095;28;20034;-78
2023/05/07 12:55:07;;;;;;;0.20;0.20;;;;;;;;;;5024833;28;20137;-78
2023/05/07 12:57:40;;;;;;;0.47;0.40;;;;;;;;;;5024717;28;20069;-79
2023/05/07 13:00:07;;;;;;;0.45;0.40;;;;;;;;;;5024605;28;20571;-78
2023/05/07 13:02:34;;;;;;;0.88;0.57;;;;;;;;;;5026865;28;20058;-78
2023/05/07 13:05:01;;;;;;;0.50;0.50;;;;;;;;;;5007148;28;20054;-78
2023/05/07 13:07:27;;;;;;;0.20;0.20;;;;;;;;;;5024680;28;20058;-80
2023/05/07 13:09:55;;;;;;;0.30;0.30;;;;;;;;;;5024506;28;20140;-78
2023/05/07 13:12:22;;;;;;;0.40;0.30;;;;;;;;;;5026168;28;20125;-78
2023/05/07 13:14:48;;;;;;;0.50;0.43;;;;;;;;;;5024853;28;20135;-78
2023/05/07 13:17:18;;;;;;;0.20;0.20;;;;;;;;;;5020149;28;20431;-78
2023/05/07 13:19:45;;;;;;;0.20;0.20;;;;;;;;;;5024202;28;20054;-78
2023/05/07 13:22:11;;;;;;;0.20;0.20;;;;;;;;;;5009313;28;20134;-80
2023/05/07 13:24:41;;;;;;;0.52;0.40;;;;;;;;;;5027266;28;20153;-80
2023/05/07 13:27:11;;;;;;;0.35;0.32;;;;;;;;;;5012740;28;20053;-80
2023/05/07 13:29:37;;;;;;;0.20;0.20;;;;;;;;;;5009601;28;20928;-78
2023/05/07 13:32:04;;;;;;;0.20;0.20;;;;;;;;;;4992836;28;20058;-78
2023/05/07 13:34:30;;;;;;;0.17;0.17;;;;;;;;;;5014753;28;20054;-78
2023/05/07 13:37:03;;;;;;;0.40;0.30;;;;;;;;;;5008293;28;20065;-80
2023/05/07 13:39:31;;;;;;;1.15;0.40;;;;;;;;;;5011779;28;20057;-80
2023/05/07 13:42:00;;;;;;;0.20;0.20;;;;;;;;;;5028265;28;20084;-80
2023/05/07 13:44:26;;;;;;;0.30;0.30;;;;;;;;;;5004105;28;20525;-80
2023/05/07 13:46:57;;;;;;;0.20;0.20;;;;;;;;;;5029452;28;20089;-80
2023/05/07 13:49:24;;;;;;;0.52;0.52;;;;;;;;;;5021261;28;20141;-80
2023/05/07 13:51:52;;;;;;;0.65;0.40;;;;;;;;;;4996128;28;20523;-80
2023/05/07 13:54:22;;;;;;;0.30;0.30;;;;;;;;;;5026622;28;20287;-78
2023/05/07 13:56:48;;;;;;;0.30;0.30;;;;;;;;;;5025286;28;20504;-78
2023/05/07 13:59:15;;;;;;;0.80;0.40;;;;;;;;;;5002421;28;20061;-79
2023/05/07 14:01:41;;;;;;;0.55;0.30;;;;;;;;;;5022791;28;20057;-80
2023/05/07 14:04:08;;;;;;;0.55;0.40;;;;;;;;;;5019749;28;20116;-80
2023/05/07 14:06:34;;;;;;;0.55;0.40;;;;;;;;;;5023649;28;20049;-78
2023/05/07 14:09:00;;;;;;;0.52;0.52;;;;;;;;;;5024232;28;20178;-78
2023/05/07 14:11:27;;;;;;;0.45;0.30;;;;;;;;;;5025283;28;20109;-78
2023/05/07 14:13:53;;;;;;;0.90;0.75;;;;;;;;;;5026415;28;20060;-78
2023/05/07 14:16:19;;;;;;;0.20;0.20;;;;;;;;;;5026847;28;20144;-78
2023/05/07 14:18:46;;;;;;;0.47;0.30;;;;;;;;;;5024010;28;20352;-78
2023/05/07 14:21:13;;;;;;;0.38;0.38;;;;;;;;;;5004625;28;20428;-79
2023/05/07 14:23:41;;;;;;;0.60;0.50;;;;;;;;;;5017574;28;20057;-78
2023/05/07 14:26:07;;;;;;;0.55;0.45;;;;;;;;;;4999940;28;20046;-80
2023/05/07 14:28:39;;;;;;;0.20;0.20;;;;;;;;;;5021520;28;20141;-80
2023/05/07 14:31:06;;;;;;;0.88;0.60;;;;;;;;;;5027399;28;20054;-80
2023/05/07 14:33:33;;;;;;;0.25;0.25;;;;;;;;;;5024735;28;20440;-80
2023/05/07 14:35:59;;;;;;;0.35;0.35;;;;;;;;;;5016828;28;20145;-78
2023/05/07 14:38:26;;;;;;;0.20;0.20;;;;;;;;;;5010143;28;20092;-79
2023/05/07 14:40:55;;;;;;;0.20;0.20;;;;;;;;;;5023230;28;20833;-79
2023/05/07 14:43:22;;;;;;;0.28;0.28;;;;;;;;;;5026450;28;20058;-78
2023/05/07 14:45:48;;;;;;;0.65;0.45;;;;;;;;;;5021169;28;20050;-78
2023/05/07 14:48:15;;;;;;;0.52;0.30;;;;;;;;;;5019931;28;20058;-78
2023/05/07 14:50:42;;;;;;;0.43;0.30;;;;;;;;;;5023736;28;20486;-78
2023/05/07 14:53:08;;;;;;;0.25;0.25;;;;;;;;;;5024586;28;20136;-78
2023/05/07 14:55:35;;;;;;;0.52;0.38;;;;;;;;;;5022294;28;20057;-80
2023/05/07 14:58:01;;;;;;;0.22;0.22;;;;;;;;;;5019334;28;20926;-80
2023/05/07 15:00:28;;;;;;;0.43;0.30;;;;;;;;;;5023239;28;20058;-80
2023/05/07 15:02:56;;;;;;;0.28;0.20;;;;;;;;;;5022719;28;20058;-80
2023/05/07 15:05:23;;;;;;;0.28;0.25;;;;;;;;;;5022263;28;20560;-78
2023/05/07 15:07:50;;;;;;;0.20;0.20;;;;;;;;;;5024522;28;20065;-78